createdAt,value
2019-01-19T00:02:37.777Z,-5.51
2019-01-19T00:05:26.318Z,-5.50
2019-01-19T00:08:25.777Z,-5.50
2019-01-19T00:11:38.948Z,-5.49
2019-01-19T00:14:54.461Z,-5.42
2019-01-19T00:18:07.576Z,-5.34
2019-01-19T00:21:16.698Z,-5.30
2019-01-19T00:24:17.226Z,-5.32
2019-01-19T00:27:33.415Z,-5.33
2019-01-19T00:30:41.761Z,-5.32
2019-01-19T00:33:35.369Z,-5.29
2019-01-19T00:36:29.121Z,-5.27
2019-01-19T00:39:42.760Z,-5.26
2019-01-19T00:42:51.564Z,-5.27
2019-01-19T00:45:48.918Z,-5.29
2019-01-19T00:48:40.037Z,-5.33
2019-01-19T00:51:50.994Z,-5.34
2019-01-19T00:54:25.079Z,-5.36
2019-01-19T00:57:02.779Z,-5.38
2019-01-19T00:59:38.170Z,-5.37
2019-01-19T01:03:02.113Z,-5.37
2019-01-19T01:05:53.275Z,-5.36
2019-01-19T01:08:43.773Z,-5.37
2019-01-19T01:11:58.748Z,-5.41
2019-01-19T01:15:10.867Z,-5.43
2019-01-19T01:18:01.755Z,-5.46
2019-01-19T01:21:19.058Z,-5.47
2019-01-19T01:24:30.892Z,-5.46
2019-01-19T01:27:16.581Z,-5.51
2019-01-19T01:30:13.518Z,-5.57
2019-01-19T01:33:00.527Z,-5.61
2019-01-19T01:36:33.820Z,-5.64
2019-01-19T01:39:36.097Z,-5.64
2019-01-19T01:43:03.015Z,-5.69
2019-01-19T01:46:11.836Z,-5.76
2019-01-19T01:49:12.093Z,-5.84
2019-01-19T01:52:24.173Z,-5.88
2019-01-19T01:55:14.816Z,-5.94
2019-01-19T01:58:13.055Z,-5.94
2019-01-19T02:00:58.270Z,-5.96
2019-01-19T02:04:06.909Z,-6.06
2019-01-19T02:07:12.015Z,-6.07
2019-01-19T02:10:23.873Z,-6.11
2019-01-19T02:13:22.195Z,-6.10
2019-01-19T02:16:30.469Z,-6.21
2019-01-19T02:19:21.834Z,-6.21
2019-01-19T02:22:27.386Z,-6.29
2019-01-19T02:25:36.225Z,-6.40
2019-01-19T02:28:50.355Z,-6.46
2019-01-19T02:31:48.471Z,-6.53
2019-01-19T02:34:57.647Z,-6.57
2019-01-19T02:38:14.858Z,-6.63
2019-01-19T02:41:26.027Z,-6.68
2019-01-19T02:44:22.537Z,-6.68
2019-01-19T02:47:42.533Z,-6.71
2019-01-19T02:50:43.112Z,-6.65
2019-01-19T02:53:58.211Z,-6.59
2019-01-19T02:57:03.155Z,-6.58
2019-01-19T03:00:06.783Z,-6.66
2019-01-19T03:03:10.094Z,-6.70
2019-01-19T03:05:45.462Z,-6.65
2019-01-19T03:08:48.827Z,-6.63
2019-01-19T03:12:00.969Z,-6.61
2019-01-19T03:15:17.806Z,-6.59
2019-01-19T03:18:41.018Z,-6.58
2019-01-19T03:21:38.249Z,-6.58
2019-01-19T03:25:01.186Z,-6.55
2019-01-19T03:28:05.959Z,-6.58
2019-01-19T03:31:30.148Z,-6.62
2019-01-19T03:34:32.688Z,-6.61
2019-01-19T03:37:33.261Z,-6.61
2019-01-19T03:40:28.458Z,-6.62
2019-01-19T03:43:22.536Z,-6.60
2019-01-19T03:46:40.924Z,-6.58
2019-01-19T03:49:20.693Z,-6.57
2019-01-19T03:52:20.583Z,-6.57
2019-01-19T03:55:32.638Z,-6.58
2019-01-19T03:58:25.851Z,-6.64
2019-01-19T04:01:46.882Z,-6.69
2019-01-19T04:04:57.212Z,-6.68
2019-01-19T04:07:50.680Z,-6.66
2019-01-19T04:10:46.104Z,-6.72
2019-01-19T04:13:33.787Z,-6.72
2019-01-19T04:16:44.012Z,-6.70
2019-01-19T04:19:33.895Z,-6.66
2019-01-19T04:22:34.290Z,-6.64
2019-01-19T04:25:22.199Z,-6.63
2019-01-19T04:27:49.278Z,-6.62
2019-01-19T04:30:16.425Z,-6.64
2019-01-19T04:32:43.609Z,-6.68
2019-01-19T04:35:10.785Z,-6.87
2019-01-19T04:37:37.903Z,-6.87
2019-01-19T04:40:06.794Z,-6.91
2019-01-19T04:42:34.182Z,-6.91
2019-01-19T04:45:01.283Z,-6.89
2019-01-19T04:47:28.514Z,-6.89
2019-01-19T04:49:55.614Z,-6.93
2019-01-19T04:52:22.747Z,-6.94
2019-01-19T04:54:49.861Z,-6.94
2019-01-19T04:57:16.984Z,-6.85
2019-01-19T04:59:44.112Z,-6.83
2019-01-19T05:02:11.206Z,-6.83
2019-01-19T05:04:38.327Z,-6.83
2019-01-19T05:07:05.414Z,-6.82
2019-01-19T05:09:32.524Z,-6.82
2019-01-19T05:11:59.669Z,-6.87
2019-01-19T05:14:26.774Z,-6.93
2019-01-19T05:16:53.871Z,-7.00
2019-01-19T05:19:20.973Z,-7.05
2019-01-19T05:21:48.069Z,-7.04
2019-01-19T05:24:15.158Z,-7.02
2019-01-19T05:26:42.269Z,-6.99
2019-01-19T05:29:09.361Z,-6.98
2019-01-19T05:31:36.498Z,-6.96
2019-01-19T05:34:03.673Z,-6.96
2019-01-19T05:36:38.057Z,-6.96
2019-01-19T05:38:59.789Z,-6.97
2019-01-19T05:41:26.891Z,-6.96
2019-01-19T05:43:53.977Z,-6.98
2019-01-19T05:46:21.520Z,-7.00
2019-01-19T05:48:48.990Z,-6.99
2019-01-19T05:51:16.085Z,-6.98
2019-01-19T05:53:43.178Z,-6.96
2019-01-19T05:56:10.285Z,-6.95
2019-01-19T05:58:37.407Z,-6.95
2019-01-19T06:01:04.501Z,-6.98
2019-01-19T06:03:31.622Z,-6.97
2019-01-19T06:05:58.935Z,-6.96
2019-01-19T06:08:26.024Z,-6.96
2019-01-19T06:10:53.134Z,-7.03
2019-01-19T06:13:20.250Z,-7.05
2019-01-19T06:15:47.359Z,-7.05
2019-01-19T06:18:14.456Z,-7.08
2019-01-19T06:20:41.565Z,-7.09
2019-01-19T06:23:08.684Z,-7.09
2019-01-19T06:25:35.777Z,-7.09
2019-01-19T06:28:02.995Z,-7.08
2019-01-19T06:30:30.084Z,-7.06
2019-01-19T06:32:57.210Z,-7.06
2019-01-19T06:35:24.311Z,-7.08
2019-01-19T06:37:51.405Z,-7.08
2019-01-19T06:40:18.674Z,-7.16
2019-01-19T06:42:45.843Z,-7.27
2019-01-19T06:45:21.250Z,-7.37
2019-01-19T06:47:48.345Z,-7.46
2019-01-19T06:50:15.477Z,-7.55
2019-01-19T06:52:42.704Z,-7.61
2019-01-19T06:55:10.938Z,-7.68
2019-01-19T06:57:38.027Z,-7.69
2019-01-19T07:00:07.296Z,-7.74
2019-01-19T07:02:34.401Z,-7.74
2019-01-19T07:05:01.551Z,-7.70
2019-01-19T07:07:28.665Z,-7.70
2019-01-19T07:09:55.759Z,-7.71
2019-01-19T07:12:22.885Z,-7.70
2019-01-19T07:14:49.982Z,-7.69
2019-01-19T07:17:17.196Z,-7.64
2019-01-19T07:19:44.339Z,-7.58
2019-01-19T07:22:11.437Z,-7.53
2019-01-19T07:24:38.607Z,-7.48
2019-01-19T07:27:05.705Z,-7.43
2019-01-19T07:29:32.840Z,-7.45
2019-01-19T07:31:59.965Z,-7.44
2019-01-19T07:34:27.075Z,-7.39
2019-01-19T07:36:54.190Z,-7.31
2019-01-19T07:39:21.298Z,-7.26
2019-01-19T07:41:48.410Z,-7.20
2019-01-19T07:44:15.529Z,-7.15
2019-01-19T07:46:43.040Z,-7.09
2019-01-19T07:49:10.164Z,-7.02
2019-01-19T07:51:37.270Z,-6.95
2019-01-19T07:54:04.385Z,-6.88
2019-01-19T07:56:31.475Z,-6.81
2019-01-19T07:58:58.774Z,-6.72
2019-01-19T08:01:25.984Z,-6.65
2019-01-19T08:03:53.095Z,-6.60
2019-01-19T08:06:20.215Z,-6.55
2019-01-19T08:08:47.327Z,-6.50
2019-01-19T08:11:14.532Z,-6.48
2019-01-19T08:13:41.676Z,-6.46
2019-01-19T08:16:08.778Z,-6.46
2019-01-19T08:18:35.889Z,-6.40
2019-01-19T08:21:03.099Z,-6.38
2019-01-19T08:23:30.212Z,-6.38
2019-01-19T08:25:57.329Z,-6.32
2019-01-19T08:28:24.447Z,-6.30
2019-01-19T08:30:51.538Z,-6.29
2019-01-19T08:33:18.641Z,-6.28
2019-01-19T08:35:46.536Z,-6.27
2019-01-19T08:38:13.651Z,-6.26
2019-01-19T08:40:40.776Z,-6.23
2019-01-19T08:43:13.384Z,-6.23
2019-01-19T08:45:40.597Z,-6.17
2019-01-19T08:48:07.881Z,-6.16
2019-01-19T08:50:35.012Z,-6.15
2019-01-19T08:53:02.107Z,-6.16
2019-01-19T08:55:29.203Z,-6.15
2019-01-19T08:57:56.321Z,-6.11
2019-01-19T09:00:23.428Z,-6.11
2019-01-19T09:02:50.540Z,-6.08
2019-01-19T09:05:17.652Z,-6.07
2019-01-19T09:07:44.756Z,-5.98
2019-01-19T09:10:12.840Z,-5.99
2019-01-19T09:12:39.958Z,-5.95
2019-01-19T09:15:09.286Z,-5.92
2019-01-19T09:17:36.381Z,-5.89
2019-01-19T09:20:04.101Z,-5.84
2019-01-19T09:22:32.096Z,-5.79
2019-01-19T09:24:59.197Z,-5.75
2019-01-19T09:27:26.306Z,-5.72
2019-01-19T09:29:53.417Z,-5.65
2019-01-19T09:32:20.625Z,-5.60
2019-01-19T09:34:47.726Z,-5.55
2019-01-19T09:37:14.849Z,-5.47
2019-01-19T09:39:41.953Z,-5.42
2019-01-19T09:42:09.060Z,-5.36
2019-01-19T09:44:36.167Z,-5.30
2019-01-19T09:47:03.384Z,-5.25
2019-01-19T09:49:37.229Z,-5.19
2019-01-19T09:52:04.333Z,-5.13
2019-01-19T09:54:31.443Z,-5.05
2019-01-19T09:56:58.558Z,-4.96
2019-01-19T09:59:25.661Z,-4.84
2019-01-19T10:01:52.781Z,-4.70
2019-01-19T10:04:19.912Z,-4.56
2019-01-19T10:06:48.201Z,-4.42
2019-01-19T10:09:15.524Z,-4.29
2019-01-19T10:11:42.669Z,-4.18
2019-01-19T10:14:09.871Z,-4.08
2019-01-19T10:16:36.964Z,-3.97
2019-01-19T10:19:04.095Z,-3.90
2019-01-19T10:21:31.796Z,-3.80
2019-01-19T10:23:58.893Z,-3.72
2019-01-19T10:26:26.017Z,-3.66
2019-01-19T10:28:53.324Z,-3.59
2019-01-19T10:31:20.418Z,-3.53
2019-01-19T10:33:47.514Z,-3.44
2019-01-19T10:36:14.611Z,-3.36
2019-01-19T10:38:41.701Z,-3.29
2019-01-19T10:41:08.906Z,-3.25
2019-01-19T10:43:36.028Z,-3.19
2019-01-19T10:46:03.148Z,-3.12
2019-01-19T10:48:30.252Z,-3.04
2019-01-19T10:50:57.363Z,-2.98
2019-01-19T10:53:24.463Z,-2.92
2019-01-19T10:55:53.141Z,-2.85
2019-01-19T10:58:20.372Z,-2.80
2019-01-19T11:00:47.461Z,-2.73
2019-01-19T11:03:14.558Z,-2.67
2019-01-19T11:05:41.684Z,-2.61
2019-01-19T11:08:10.952Z,-2.56
2019-01-19T11:10:38.051Z,-2.52
2019-01-19T11:13:05.157Z,-2.47
2019-01-19T11:15:32.243Z,-2.44
2019-01-19T11:17:59.336Z,-2.41
2019-01-19T11:20:27.708Z,-2.37
2019-01-19T11:22:55.578Z,-2.36
2019-01-19T11:25:22.687Z,-2.33
2019-01-19T11:27:49.771Z,-2.29
2019-01-19T11:30:21.834Z,-2.25
2019-01-19T11:32:48.941Z,-2.22
2019-01-19T11:35:16.307Z,-2.19
2019-01-19T11:37:43.394Z,-2.17
2019-01-19T11:40:13.624Z,-2.13
2019-01-19T11:42:40.728Z,-2.10
2019-01-19T11:45:12.263Z,-2.05
2019-01-19T11:47:39.362Z,-2.01
2019-01-19T11:50:06.729Z,-1.96
2019-01-19T11:52:33.834Z,-1.91
2019-01-19T11:55:01.231Z,-1.84
2019-01-19T11:57:28.329Z,-1.77
2019-01-19T11:59:55.424Z,-1.68
2019-01-19T12:02:22.548Z,-1.59
2019-01-19T12:04:49.644Z,-1.51
2019-01-19T12:07:18.376Z,-1.42
2019-01-19T12:09:45.605Z,-1.33
2019-01-19T12:12:12.730Z,-1.25
2019-01-19T12:14:39.845Z,-1.15
2019-01-19T12:17:06.956Z,-1.10
2019-01-19T12:19:34.075Z,-1.03
2019-01-19T12:22:01.170Z,-0.98
2019-01-19T12:24:28.270Z,-0.92
2019-01-19T12:26:55.368Z,-0.88
2019-01-19T12:29:22.474Z,-0.84
2019-01-19T12:31:49.566Z,-0.81
2019-01-19T12:34:16.671Z,-0.75
2019-01-19T12:36:43.760Z,-0.72
2019-01-19T12:39:10.854Z,-0.69
2019-01-19T12:41:37.953Z,-0.66
2019-01-19T12:44:05.781Z,-0.63
2019-01-19T12:46:32.889Z,-0.59
2019-01-19T12:48:59.976Z,-0.57
2019-01-19T12:51:27.070Z,-0.54
2019-01-19T12:53:54.261Z,-0.50
2019-01-19T12:56:21.354Z,-0.47
2019-01-19T12:58:48.450Z,-0.44
2019-01-19T13:01:15.557Z,-0.40
2019-01-19T13:03:42.769Z,-0.38
2019-01-19T13:06:38.593Z,-0.37
2019-01-19T13:09:15.791Z,-0.33
2019-01-19T13:12:08.080Z,-0.30
2019-01-19T13:14:40.197Z,-0.30
2019-01-19T13:17:44.311Z,-0.32
2019-01-19T13:20:20.169Z,-0.34
2019-01-19T13:23:47.156Z,-0.33
2019-01-19T13:27:08.117Z,-0.31
2019-01-19T13:30:01.607Z,-0.32
2019-01-19T13:33:01.545Z,-0.35
2019-01-19T13:36:06.506Z,-0.35
2019-01-19T13:39:33.472Z,-0.38
2019-01-19T13:42:39.001Z,-0.39
2019-01-19T13:45:33.544Z,-0.42
2019-01-19T13:48:34.034Z,-0.44
2019-01-19T13:51:44.818Z,-0.45
2019-01-19T13:54:58.527Z,-0.47
2019-01-19T13:57:46.144Z,-0.51
2019-01-19T14:01:09.110Z,-0.53
2019-01-19T14:04:01.135Z,-0.53
2019-01-19T14:07:04.133Z,-0.56
2019-01-19T14:10:18.996Z,-0.58
2019-01-19T14:13:30.086Z,-0.61
2019-01-19T14:16:22.348Z,-0.61
2019-01-19T14:19:21.537Z,-0.64
2019-01-19T14:22:26.240Z,-0.64
2019-01-19T14:25:37.977Z,-0.64
2019-01-19T14:28:56.249Z,-0.64
2019-01-19T14:31:52.313Z,-0.65
2019-01-19T14:34:30.026Z,-0.65
2019-01-19T14:37:45.181Z,-0.65
2019-01-19T14:40:38.713Z,-0.65
2019-01-19T14:44:03.330Z,-0.65
2019-01-19T14:46:59.732Z,-0.66
2019-01-19T14:50:06.981Z,-0.66
2019-01-19T14:53:08.483Z,-0.67
2019-01-19T14:56:23.593Z,-0.66
2019-01-19T14:59:44.465Z,-0.65
2019-01-19T15:03:01.730Z,-0.63
2019-01-19T15:05:59.752Z,-0.60
2019-01-19T15:08:50.455Z,-0.60
2019-01-19T15:11:32.357Z,-0.59
2019-01-19T15:14:25.004Z,-0.58
2019-01-19T15:17:18.048Z,-0.56
2019-01-19T15:20:39.217Z,-0.56
2019-01-19T15:23:40.115Z,-0.55
2019-01-19T15:26:52.598Z,-0.54
2019-01-19T15:29:57.284Z,-0.55
2019-01-19T15:33:17.241Z,-0.54
2019-01-19T15:36:02.590Z,-0.56
2019-01-19T15:39:00.685Z,-0.58
2019-01-19T15:42:05.337Z,-0.59
2019-01-19T15:45:14.409Z,-0.61
2019-01-19T15:48:00.502Z,-0.61
2019-01-19T15:51:08.360Z,-0.61
2019-01-19T15:53:46.160Z,-0.63
2019-01-19T15:57:00.764Z,-0.66
2019-01-19T16:00:18.367Z,-0.67
2019-01-19T16:03:06.715Z,-0.70
2019-01-19T16:05:59.122Z,-0.75
2019-01-19T16:09:01.949Z,-0.78
2019-01-19T16:11:57.064Z,-0.82
2019-01-19T16:15:24.165Z,-0.84
2019-01-19T16:18:27.279Z,-0.85
2019-01-19T16:21:19.952Z,-0.84
2019-01-19T16:24:14.956Z,-0.84
2019-01-19T16:27:40.724Z,-0.87
2019-01-19T16:30:41.017Z,-0.89
2019-01-19T16:33:27.516Z,-0.93
2019-01-19T16:36:42.228Z,-0.94
2019-01-19T16:39:57.311Z,-0.96
2019-01-19T16:42:55.832Z,-0.98
2019-01-19T16:46:31.938Z,-1.04
2019-01-19T16:49:49.565Z,-1.09
2019-01-19T16:52:57.385Z,-1.16
2019-01-19T16:55:52.859Z,-1.21
2019-01-19T16:58:34.455Z,-1.24
2019-01-19T17:01:32.300Z,-1.27
2019-01-19T17:04:29.272Z,-1.30
2019-01-19T17:07:31.515Z,-1.34
2019-01-19T17:10:40.411Z,-1.41
2019-01-19T17:13:45.926Z,-1.47
2019-01-19T17:16:46.973Z,-1.49
2019-01-19T17:20:10.810Z,-1.52
2019-01-19T17:23:24.350Z,-1.56
2019-01-19T17:26:45.762Z,-1.59
2019-01-19T17:30:02.010Z,-1.62
2019-01-19T17:33:13.947Z,-1.68
2019-01-19T17:36:34.105Z,-1.71
2019-01-19T17:40:07.445Z,-1.74
2019-01-19T17:43:08.813Z,-1.76
2019-01-19T17:46:15.786Z,-1.78
2019-01-19T17:49:15.733Z,-1.84
2019-01-19T17:52:24.649Z,-1.86
2019-01-19T17:55:45.312Z,-1.88
2019-01-19T17:59:07.757Z,-1.90
2019-01-19T18:02:07.468Z,-1.91
2019-01-19T18:05:22.412Z,-1.93
2019-01-19T18:08:17.148Z,-1.95
2019-01-19T18:11:18.711Z,-1.93
2019-01-19T18:14:33.779Z,-1.87
2019-01-19T18:17:57.852Z,-1.81
2019-01-19T18:20:57.883Z,-1.78
2019-01-19T18:24:10.141Z,-1.79
2019-01-19T18:27:03.429Z,-1.81
2019-01-19T18:30:14.734Z,-1.80
2019-01-19T18:33:07.521Z,-1.81
2019-01-19T18:36:12.255Z,-1.82
2019-01-19T18:39:16.983Z,-1.81
2019-01-19T18:41:57.830Z,-1.82
2019-01-19T18:45:11.462Z,-1.83
2019-01-19T18:48:31.522Z,-1.82
2019-01-19T18:51:37.422Z,-1.83
2019-01-19T18:54:42.217Z,-1.83
2019-01-19T18:57:53.113Z,-1.88
2019-01-19T19:01:13.952Z,-1.94
2019-01-19T19:04:17.615Z,-1.98
2019-01-19T19:07:35.752Z,-2.03
2019-01-19T19:10:49.390Z,-2.06
2019-01-19T19:14:07.641Z,-2.12
2019-01-19T19:17:12.322Z,-2.15
2019-01-19T19:20:18.988Z,-2.21
2019-01-19T19:23:43.137Z,-2.28
2019-01-19T19:26:47.790Z,-2.31
2019-01-19T19:29:51.644Z,-2.36
2019-01-19T19:32:43.656Z,-2.38
2019-01-19T19:35:41.435Z,-2.42
2019-01-19T19:38:42.056Z,-2.45
2019-01-19T19:41:57.031Z,-2.48
2019-01-19T19:45:09.094Z,-2.50
2019-01-19T19:48:08.274Z,-2.50
2019-01-19T19:50:50.026Z,-2.52
2019-01-19T19:53:17.128Z,-2.56
2019-01-19T19:55:43.186Z,-2.60
2019-01-19T19:58:10.250Z,-2.64
2019-01-19T20:00:37.754Z,-2.69
2019-01-19T20:03:04.952Z,-2.71
2019-01-19T20:05:32.086Z,-2.75
2019-01-19T20:07:59.181Z,-2.79
2019-01-19T20:10:26.312Z,-2.79
2019-01-19T20:12:53.411Z,-2.82
2019-01-19T20:15:20.537Z,-2.82
2019-01-19T20:17:47.717Z,-2.82
2019-01-19T20:20:14.915Z,-2.81
2019-01-19T20:22:42.123Z,-2.79
2019-01-19T20:25:09.236Z,-2.74
2019-01-19T20:27:36.338Z,-2.70
2019-01-19T20:30:05.979Z,-2.67
2019-01-19T20:32:33.105Z,-2.64
2019-01-19T20:35:00.213Z,-2.64
2019-01-19T20:37:29.629Z,-2.63
2019-01-19T20:39:59.476Z,-2.65
2019-01-19T20:42:26.742Z,-2.65
2019-01-19T20:44:59.167Z,-2.65
2019-01-19T20:47:27.863Z,-2.64
2019-01-19T20:49:54.989Z,-2.66
2019-01-19T20:52:22.267Z,-2.66
2019-01-19T20:54:49.309Z,-2.64
2019-01-19T20:57:18.658Z,-2.62
2019-01-19T20:59:45.751Z,-2.61
2019-01-19T21:02:17.732Z,-2.61
2019-01-19T21:04:44.900Z,-2.61
2019-01-19T21:07:12.208Z,-2.61
2019-01-19T21:09:40.492Z,-2.63
2019-01-19T21:12:10.790Z,-2.63
2019-01-19T21:14:38.258Z,-2.62
2019-01-19T21:17:06.780Z,-2.58
2019-01-19T21:19:34.143Z,-2.57
2019-01-19T21:22:03.184Z,-2.55
2019-01-19T21:24:31.501Z,-2.50
2019-01-19T21:27:00.681Z,-2.45
2019-01-19T21:29:29.051Z,-2.41
2019-01-19T21:31:56.410Z,-2.39
2019-01-19T21:34:24.078Z,-2.39
2019-01-19T21:36:51.190Z,-2.38
2019-01-19T21:39:18.304Z,-2.38
2019-01-19T21:41:45.430Z,-2.39
2019-01-19T21:44:12.590Z,-2.41
2019-01-19T21:46:41.112Z,-2.44
2019-01-19T21:49:10.959Z,-2.42
2019-01-19T21:51:41.070Z,-2.45
2019-01-19T21:54:09.539Z,-2.47
2019-01-19T21:56:39.687Z,-2.50
2019-01-19T21:59:06.776Z,-2.53
2019-01-19T22:01:33.912Z,-2.55
2019-01-19T22:04:01.034Z,-2.54
2019-01-19T22:06:28.133Z,-2.55
2019-01-19T22:08:55.232Z,-2.56
2019-01-19T22:11:22.348Z,-2.55
2019-01-19T22:13:51.077Z,-2.56
2019-01-19T22:16:27.196Z,-2.57
2019-01-19T22:18:54.301Z,-2.62
2019-01-19T22:21:23.612Z,-2.60
2019-01-19T22:23:50.755Z,-2.62
2019-01-19T22:26:18.939Z,-2.66
2019-01-19T22:28:49.018Z,-2.67
2019-01-19T22:31:18.150Z,-2.68
2019-01-19T22:33:47.297Z,-2.72
2019-01-19T22:36:17.522Z,-2.78
2019-01-19T22:38:45.036Z,-2.81
2019-01-19T22:41:12.791Z,-2.86
2019-01-19T22:43:40.037Z,-2.89
2019-01-19T22:46:07.127Z,-2.90
2019-01-19T22:48:36.944Z,-2.94
2019-01-19T22:51:11.223Z,-2.99
2019-01-19T22:53:36.099Z,-3.04
2019-01-19T22:56:03.456Z,-3.06
2019-01-19T22:58:30.884Z,-3.07
2019-01-19T23:01:22.772Z,-3.08
2019-01-19T23:03:52.460Z,-3.10
2019-01-19T23:06:22.516Z,-3.15
2019-01-19T23:08:52.625Z,-3.17
2019-01-19T23:11:21.842Z,-3.19
2019-01-19T23:13:48.762Z,-3.20
2019-01-19T23:16:15.885Z,-3.23
2019-01-19T23:18:45.890Z,-3.25
2019-01-19T23:21:12.992Z,-3.28
2019-01-19T23:23:40.089Z,-3.31
2019-01-19T23:26:07.292Z,-3.30
2019-01-19T23:28:34.397Z,-3.31
2019-01-19T23:31:01.489Z,-3.34
2019-01-19T23:33:28.605Z,-3.34
2019-01-19T23:35:55.700Z,-3.36
2019-01-19T23:38:24.040Z,-3.37
2019-01-19T23:40:53.043Z,-3.36
2019-01-19T23:43:20.387Z,-3.36
2019-01-19T23:45:47.580Z,-3.37
2019-01-19T23:48:16.636Z,-3.38
2019-01-19T23:50:45.631Z,-3.37
2019-01-19T23:53:13.861Z,-3.37
2019-01-19T23:55:41.368Z,-3.37
2019-01-19T23:58:08.683Z,-3.36
